Time;durP1;ratioP1;P1;durP2;ratioP2;P2;SDS_P1;SDS_P2;PMS_P1;PMS_P2;Temp;Humidity;BMP_temperature;BMP_pressure;BME280_temperature;BME280_humidity;BME280_pressure;Samples;Min_cycle;Max_cycle;Signal;HPM_P1;HPM_P2
2022/03/14 00:01:31;;;;;;;6.63;4.17;;;2.70;48.80;2.30;101170.00;;;;4960814;28;96329;-67
2022/03/14 00:03:58;;;;;;;6.40;3.30;;;2.60;48.90;2.30;101164.00;;;;4976032;28;88808;-68
2022/03/14 00:06:25;;;;;;;6.63;3.43;;;2.60;49.10;2.20;101171.00;;;;4967662;28;88594;-68
2022/03/14 00:08:54;;;;;;;5.90;3.50;;;2.60;49.30;2.20;101168.00;;;;4948393;28;87769;-67
2022/03/14 00:11:20;;;;;;;4.90;3.23;;;2.40;49.30;2.10;101168.00;;;;4971346;28;87772;-68
2022/03/14 00:13:47;;;;;;;7.07;3.57;;;2.40;50.10;2.10;101169.00;;;;4975370;28;89035;-69
2022/03/14 00:16:26;;;;;;;4.60;2.87;;;2.30;49.60;2.00;101177.00;;;;4964488;28;117433;-67
2022/03/14 00:18:55;;;;;;;6.50;3.87;;;2.30;49.70;2.00;101169.00;;;;4954889;28;87898;-69
2022/03/14 00:21:23;;;;;;;5.67;3.37;;;2.20;49.80;1.90;101157.00;;;;4956559;28;87774;-69
2022/03/14 00:23:51;;;;;;;8.40;4.00;;;2.40;49.90;1.90;101162.00;;;;4956311;28;89136;-70
2022/03/14 00:26:17;;;;;;;4.80;3.47;;;2.20;50.00;1.80;101171.00;;;;4962517;28;87876;-69
2022/03/14 00:28:43;;;;;;;7.17;4.20;;;2.10;50.10;1.70;101154.00;;;;4936462;28;88078;-68
2022/03/14 00:31:08;;;;;;;5.23;4.03;;;2.00;50.20;1.70;101161.00;;;;4962066;28;87200;-68
2022/03/14 00:33:35;;;;;;;7.13;3.20;;;2.00;50.20;1.60;101159.00;;;;4972691;28;118952;-67
2022/03/14 00:36:01;;;;;;;4.30;3.07;;;2.00;50.30;1.50;101160.00;;;;4974705;28;88503;-69
2022/03/14 00:38:27;;;;;;;5.90;3.80;;;1.80;50.40;1.50;101164.00;;;;4977279;28;89291;-69
2022/03/14 00:40:53;;;;;;;7.53;4.00;;;1.80;50.60;1.40;101159.00;;;;4974892;28;107742;-67
2022/03/14 00:43:19;;;;;;;3.03;2.67;;;1.80;50.80;1.40;101160.00;;;;4976024;28;88246;-67
2022/03/14 00:45:45;;;;;;;5.30;3.10;;;1.70;51.00;1.30;101163.00;;;;4971270;28;88243;-68
2022/03/14 00:48:10;;;;;;;3.40;3.03;;;1.70;51.10;1.30;101156.00;;;;4956254;28;87901;-68
2022/03/14 00:50:37;;;;;;;4.30;3.27;;;1.60;51.30;1.20;101164.00;;;;4957053;28;107194;-68
2022/03/14 00:53:02;;;;;;;5.97;3.97;;;1.50;51.30;1.20;101165.00;;;;4973984;28;117082;-67
2022/03/14 00:55:28;;;;;;;3.33;3.03;;;1.60;51.50;1.20;101163.00;;;;4974331;28;116412;-67
2022/03/14 00:57:54;;;;;;;7.77;4.00;;;1.50;51.50;1.20;101159.00;;;;4965494;28;109991;-67
2022/03/14 01:00:20;;;;;;;4.93;3.57;;;1.50;51.60;1.10;101166.00;;;;4954448;28;109932;-67
2022/03/14 01:02:50;;;;;;;4.67;3.83;;;1.40;51.80;1.10;101164.00;;;;4973908;28;118030;-67
2022/03/14 01:05:16;;;;;;;5.53;3.27;;;1.50;52.00;1.10;101157.00;;;;4975145;28;89470;-67
2022/03/14 01:07:43;;;;;;;9.30;3.97;;;1.40;51.90;1.00;101158.00;;;;4941154;28;87461;-68
2022/03/14 01:10:09;;;;;;;6.07;3.33;;;1.30;52.10;1.00;101156.00;;;;4953015;28;87721;-68
2022/03/14 01:12:34;;;;;;;8.33;3.63;;;1.30;52.00;0.90;101161.00;;;;4971184;28;111851;-69
2022/03/14 01:15:01;;;;;;;5.60;3.87;;;1.20;52.00;0.90;101156.00;;;;4974513;28;114645;-69
2022/03/14 01:17:27;;;;;;;4.90;3.10;;;1.30;52.20;0.90;101162.00;;;;4938382;28;87711;-69
2022/03/14 01:19:53;;;;;;;8.07;4.13;;;1.30;52.20;0.80;101172.00;;;;4969174;28;94592;-68
2022/03/14 01:22:19;;;;;;;8.67;4.60;;;1.20;52.40;0.80;101161.00;;;;4970997;28;88925;-69
2022/03/14 01:24:44;;;;;;;3.90;3.23;;;1.10;52.50;0.70;101163.00;;;;4972354;28;107437;-68
2022/03/14 01:27:10;;;;;;;3.17;2.77;;;1.10;52.60;0.70;101165.00;;;;4973197;28;99536;-69
2022/03/14 01:29:37;;;;;;;6.93;4.00;;;1.00;52.60;0.60;101164.00;;;;4955969;28;87970;-69
2022/03/14 01:32:05;;;;;;;4.87;3.70;;;0.90;52.60;0.50;101173.00;;;;4974714;28;87955;-68
2022/03/14 01:34:31;;;;;;;5.63;3.70;;;0.90;52.80;0.50;101176.00;;;;4955771;28;98043;-69
2022/03/14 01:36:57;;;;;;;8.83;3.90;;;0.80;52.90;0.50;101169.00;;;;4970689;28;91433;-69
2022/03/14 01:39:24;;;;;;;7.30;4.63;;;0.80;53.10;0.50;101177.00;;;;4974731;28;87728;-69
2022/03/14 01:41:50;;;;;;;4.10;2.97;;;0.80;53.20;0.40;101184.00;;;;4974559;28;88129;-69
2022/03/14 01:44:15;;;;;;;4.63;3.80;;;0.70;53.20;0.40;101174.00;;;;4956532;28;87288;-69
2022/03/14 01:46:42;;;;;;;3.97;2.63;;;0.70;53.30;0.30;101175.00;;;;4962173;28;97262;-69
2022/03/14 01:49:09;;;;;;;9.80;4.83;;;0.60;53.40;0.30;101176.00;;;;4959967;28;108660;-68
2022/03/14 01:51:35;;;;;;;4.23;3.07;;;0.60;53.50;0.20;101173.00;;;;4971367;28;89693;-70
2022/03/14 01:54:01;;;;;;;6.30;2.87;;;0.30;53.40;0.10;101170.00;;;;4972582;28;118344;-69
2022/03/14 01:56:27;;;;;;;4.93;3.77;;;0.50;53.60;0.00;101177.00;;;;4955724;28;88154;-69
2022/03/14 01:58:54;;;;;;;5.10;3.80;;;0.40;53.80;0.00;101172.00;;;;4972719;28;108685;-69
2022/03/14 02:01:21;;;;;;;5.47;3.73;;;0.40;53.90;-0.10;101168.00;;;;4973762;28;88942;-69
2022/03/14 02:03:50;;;;;;;7.17;3.77;;;0.30;54.00;-0.10;101169.00;;;;4971932;28;117088;-68
2022/03/14 02:06:15;;;;;;;6.37;3.97;;;0.20;54.20;-0.20;101165.00;;;;4966243;28;87814;-69
2022/03/14 02:08:41;;;;;;;6.57;3.40;;;0.10;54.30;-0.30;101168.00;;;;4954852;28;87097;-69
2022/03/14 02:11:07;;;;;;;5.30;3.63;;;0.10;54.40;-0.30;101170.00;;;;4955536;28;116422;-68
2022/03/14 02:13:33;;;;;;;5.20;3.43;;;0.80;54.80;-0.40;101168.00;;;;4973101;28;88440;-69
2022/03/14 02:15:59;;;;;;;4.60;3.93;;;0.00;54.60;-0.40;101168.00;;;;4971463;28;102633;-68
2022/03/14 02:18:25;;;;;;;4.60;3.20;;;0.00;54.70;-0.50;101172.00;;;;4958639;28;98890;-68
2022/03/14 02:20:51;;;;;;;5.80;3.53;;;-0.10;54.70;-0.50;101167.00;;;;4953964;28;89154;-68
2022/03/14 02:23:17;;;;;;;5.17;4.03;;;-0.10;54.90;-0.50;101171.00;;;;4953750;28;87857;-68
2022/03/14 02:25:51;;;;;;;3.27;2.77;;;-0.20;55.00;-0.60;101161.00;;;;4954192;28;87461;-69
2022/03/14 02:28:20;;;;;;;3.97;3.00;;;-0.20;55.00;-0.60;101163.00;;;;4954514;28;87799;-68
2022/03/14 02:30:46;;;;;;;8.60;3.73;;;-0.20;55.20;-0.60;101168.00;;;;4963111;28;89067;-68
2022/03/14 02:33:12;;;;;;;5.93;3.27;;;-0.30;55.20;-0.70;101168.00;;;;4977317;28;109213;-68
2022/03/14 02:35:40;;;;;;;7.33;3.17;;;-0.30;55.20;-0.70;101179.00;;;;4972696;28;87890;-68
2022/03/14 02:38:09;;;;;;;4.70;2.73;;;-0.30;55.40;-0.70;101175.00;;;;4976150;28;87633;-68
2022/03/14 02:40:39;;;;;;;5.00;3.40;;;-0.40;55.40;-0.70;101173.00;;;;4976104;28;89716;-68
2022/03/14 02:43:05;;;;;;;2.90;2.70;;;-0.40;55.50;-0.80;101178.00;;;;4975692;28;89530;-68
2022/03/14 02:45:32;;;;;;;3.53;2.77;;;-0.50;55.60;-0.80;101178.00;;;;4968578;28;87476;-68
2022/03/14 02:47:59;;;;;;;3.60;3.30;;;-0.40;55.70;-0.80;101180.00;;;;4957858;28;87569;-68
2022/03/14 02:50:26;;;;;;;4.77;4.07;;;-0.50;55.80;-0.90;101185.00;;;;4956669;28;88099;-68
2022/03/14 02:52:52;;;;;;;4.13;3.70;;;-0.50;55.90;-0.90;101176.00;;;;4974730;28;88766;-68
2022/03/14 02:55:21;;;;;;;3.73;2.87;;;-0.50;56.00;-1.00;101177.00;;;;4974921;28;88019;-69
2022/03/14 02:57:47;;;;;;;3.43;3.00;;;-0.60;56.20;-1.00;101188.00;;;;4977876;28;86904;-69
2022/03/14 03:00:13;;;;;;;4.03;3.50;;;-0.70;56.30;-1.10;101176.00;;;;4975116;28;88452;-68
2022/03/14 03:02:42;;;;;;;3.33;2.93;;;-0.70;56.40;-1.10;101190.00;;;;4952690;28;87840;-68
2022/03/14 03:05:09;;;;;;;4.97;2.90;;;-0.80;56.50;-1.20;101197.00;;;;4957445;28;89026;-69
2022/03/14 03:07:39;;;;;;;11.60;4.47;;;-0.80;56.70;-1.30;101182.00;;;;4957201;28;87708;-68
2022/03/14 03:10:06;;;;;;;6.07;3.53;;;-0.80;56.90;-1.30;101194.00;;;;4957469;28;88131;-68
2022/03/14 03:12:37;;;;;;;4.40;3.03;;;-0.80;57.10;-1.40;101193.00;;;;4969695;28;87779;-69
2022/03/14 03:15:04;;;;;;;8.20;4.43;;;-1.00;57.10;-1.40;101196.00;;;;4936196;28;87778;-68
2022/03/14 03:17:29;;;;;;;4.33;3.30;;;-1.00;57.20;-1.50;101196.00;;;;4976296;28;99005;-68
2022/03/14 03:19:55;;;;;;;5.80;3.97;;;-1.10;57.30;-1.60;101193.00;;;;4973497;28;116760;-68
2022/03/14 03:22:21;;;;;;;5.23;4.20;;;-1.10;57.60;-1.60;101196.00;;;;4975583;28;96035;-68
2022/03/14 03:24:46;;;;;;;7.90;3.93;;;-1.10;58.20;-1.70;101168.00;;;;4976044;28;110923;-67
2022/03/14 03:27:12;;;;;;;6.47;3.83;;;-0.70;60.00;-1.60;101141.00;;;;4960099;28;109972;-68
2022/03/14 03:29:38;;;;;;;9.77;4.70;;;-1.20;60.80;-1.50;101151.00;;;;4954945;28;119070;-68
2022/03/14 03:32:04;;;;;;;4.97;4.23;;;-1.20;61.10;-1.40;101186.00;;;;4970549;28;117489;-67
2022/03/14 03:34:29;;;;;;;7.60;4.13;;;-1.10;60.50;-1.40;101184.00;;;;4956533;28;99459;-67
2022/03/14 03:36:55;;;;;;;4.37;3.97;;;-0.50;60.30;-1.20;101182.00;;;;4956068;28;108912;-68
2022/03/14 03:39:21;;;;;;;9.10;5.53;;;-1.10;59.50;-1.10;101197.00;;;;4957964;28;88144;-68
2022/03/14 03:41:46;;;;;;;4.50;3.30;;;-0.90;59.10;-1.10;101196.00;;;;4966112;28;118122;-68
2022/03/14 03:44:12;;;;;;;6.83;4.20;;;-0.80;58.80;-1.00;101191.00;;;;4976508;28;89643;-68
2022/03/14 03:46:38;;;;;;;6.13;3.80;;;-0.70;58.70;-1.00;101200.00;;;;4973370;28;109213;-68
2022/03/14 03:49:03;;;;;;;4.90;3.77;;;-0.70;58.50;-1.00;101198.00;;;;4976510;28;88754;-68
2022/03/14 03:51:29;;;;;;;6.57;4.07;;;-0.60;58.40;-1.00;101216.00;;;;4965350;28;116901;-68
2022/03/14 03:53:55;;;;;;;10.47;4.27;;;-0.70;58.20;-0.90;101210.00;;;;4956337;28;102142;-69
2022/03/14 03:56:21;;;;;;;4.63;3.87;;;-0.60;58.20;-0.90;101211.00;;;;4965704;28;108327;-68
2022/03/14 03:58:47;;;;;;;8.23;4.20;;;0.00;58.40;-0.90;101206.00;;;;4975262;28;102481;-68
2022/03/14 04:01:19;;;;;;;5.63;3.37;;;-0.60;58.00;-1.00;101200.00;;;;4975532;28;87825;-68
2022/03/14 04:03:54;;;;;;;4.93;3.53;;;-0.60;58.00;-1.00;101218.00;;;;4976614;28;87706;-68
2022/03/14 04:06:25;;;;;;;6.37;3.57;;;-0.60;57.90;-1.00;101211.00;;;;4964273;28;87577;-68
2022/03/14 04:08:52;;;;;;;5.27;3.63;;;-0.70;57.90;-1.10;101205.00;;;;4946779;28;88661;-68
2022/03/14 04:11:19;;;;;;;4.27;3.80;;;-0.70;58.00;-1.10;101210.00;;;;4972761;28;88367;-69
2022/03/14 04:13:45;;;;;;;5.60;4.30;;;-0.70;58.10;-1.20;101221.00;;;;4976686;28;87692;-68
2022/03/14 04:16:11;;;;;;;4.57;3.67;;;-0.80;58.10;-1.20;101227.00;;;;4967746;28;87838;-68
2022/03/14 04:18:37;;;;;;;4.10;3.33;;;-0.80;58.20;-1.30;101220.00;;;;4955143;28;89833;-68
2022/03/14 04:21:03;;;;;;;5.67;4.03;;;-0.90;58.20;-1.40;101225.00;;;;4972179;28;89641;-68
2022/03/14 04:23:31;;;;;;;4.90;3.37;;;-0.90;58.40;-1.40;101239.00;;;;4974972;28;109617;-69
2022/03/14 04:25:57;;;;;;;7.10;4.17;;;-1.00;58.50;-1.50;101216.00;;;;4959634;28;87863;-68
2022/03/14 04:28:24;;;;;;;13.30;5.40;;;-1.00;58.70;-1.50;101227.00;;;;4956341;28;88276;-68
2022/03/14 04:30:50;;;;;;;12.80;7.50;;;-1.20;58.80;-1.60;101238.00;;;;4961800;28;88032;-68
2022/03/14 04:33:16;;;;;;;6.97;4.57;;;-1.20;58.90;-1.60;101229.00;;;;4956742;28;88070;-67
2022/03/14 04:35:42;;;;;;;5.83;4.93;;;-1.20;59.10;-1.60;101225.00;;;;4956533;28;94669;-68
2022/03/14 04:38:08;;;;;;;9.80;4.57;;;-1.20;59.20;-1.70;101228.00;;;;4960875;28;88079;-69
2022/03/14 04:40:34;;;;;;;6.80;4.40;;;-1.20;59.30;-1.70;101213.00;;;;4956115;28;87748;-68
2022/03/14 04:43:08;;;;;;;4.40;3.97;;;-1.30;59.30;-1.70;101218.00;;;;4955152;28;88716;-68
2022/03/14 04:45:36;;;;;;;9.63;4.20;;;-1.30;59.40;-1.70;101223.00;;;;4958201;28;87756;-68
2022/03/14 04:48:03;;;;;;;4.43;4.03;;;-1.30;59.60;-1.80;101211.00;;;;4975359;28;88805;-68
2022/03/14 04:50:29;;;;;;;5.10;4.60;;;-1.30;59.60;-1.80;101220.00;;;;4973720;28;88900;-68
2022/03/14 04:52:55;;;;;;;7.67;5.10;;;-1.40;59.80;-1.80;101218.00;;;;4969619;28;87563;-68
2022/03/14 04:55:21;;;;;;;7.73;4.60;;;-1.40;59.90;-1.80;101230.00;;;;4955464;28;91161;-68
2022/03/14 04:57:47;;;;;;;9.13;5.50;;;-1.40;59.90;-1.90;101229.00;;;;4955064;28;104692;-68
2022/03/14 05:00:13;;;;;;;11.97;8.27;;;-1.40;60.00;-1.90;101229.00;;;;4956364;28;88838;-68
2022/03/14 05:02:38;;;;;;;7.17;4.33;;;-1.40;60.20;-1.90;101231.00;;;;4955532;28;88027;-67
2022/03/14 05:05:05;;;;;;;7.53;5.20;;;-1.50;60.10;-2.00;101231.00;;;;4955919;28;87917;-67
2022/03/14 05:07:31;;;;;;;5.63;4.53;;;-1.50;60.40;-2.00;101232.00;;;;4948230;28;109136;-67
2022/03/14 05:09:56;;;;;;;7.77;4.53;;;-1.60;60.60;-2.00;101229.00;;;;4955195;28;89486;-67
2022/03/14 05:12:22;;;;;;;10.00;3.70;;;-0.90;61.30;-2.10;101236.00;;;;4964920;28;111141;-68
2022/03/14 05:14:52;;;;;;;5.97;4.77;;;-1.60;61.00;-2.10;101246.00;;;;4975654;28;87745;-67
2022/03/14 05:17:17;;;;;;;8.33;4.67;;;-1.70;61.10;-2.10;101241.00;;;;4957406;28;112891;-67
2022/03/14 05:19:43;;;;;;;5.57;4.43;;;-1.70;61.10;-2.10;101243.00;;;;4954205;28;108088;-67
2022/03/14 05:22:09;;;;;;;8.60;4.47;;;-1.70;61.30;-2.10;101237.00;;;;4953840;28;110826;-67
2022/03/14 05:24:35;;;;;;;5.03;4.17;;;-1.70;61.60;-2.10;101231.00;;;;4954742;28;109735;-67
2022/03/14 05:27:01;;;;;;;8.27;4.87;;;-1.70;61.80;-2.10;101240.00;;;;4966034;28;89146;-69
2022/03/14 05:29:27;;;;;;;9.20;4.67;;;-1.70;61.90;-2.10;101242.00;;;;4955074;28;115660;-69
2022/03/14 05:31:53;;;;;;;5.63;4.47;;;-1.70;62.00;-2.10;101234.00;;;;4955147;28;109698;-67
2022/03/14 05:34:19;;;;;;;7.33;4.80;;;-1.60;62.20;-2.00;101244.00;;;;4975402;28;87829;-67
2022/03/14 05:36:45;;;;;;;10.80;6.20;;;-1.60;62.40;-2.00;101254.00;;;;4971811;28;89186;-68
2022/03/14 05:39:10;;;;;;;9.83;6.07;;;-1.60;62.20;-1.90;101263.00;;;;4971100;28;87458;-67
2022/03/14 05:41:36;;;;;;;13.03;5.40;;;-1.60;62.20;-1.90;101260.00;;;;4953866;28;111567;-67
2022/03/14 05:44:02;;;;;;;8.03;5.57;;;-1.50;62.40;-1.90;101262.00;;;;4958487;28;107223;-67
2022/03/14 05:46:28;;;;;;;4.50;3.70;;;-1.20;62.60;-1.80;101265.00;;;;4953672;28;88860;-69
2022/03/14 05:48:54;;;;;;;12.13;4.97;;;-1.40;62.60;-1.70;101259.00;;;;4954467;28;117177;-67
2022/03/14 05:51:19;;;;;;;9.10;5.60;;;-1.30;62.70;-1.60;101264.00;;;;4952176;28;87576;-69
2022/03/14 05:53:45;;;;;;;12.53;5.43;;;-1.30;63.00;-1.60;101270.00;;;;4949751;28;106960;-70
2022/03/14 05:56:11;;;;;;;8.53;5.70;;;-1.20;63.10;-1.50;101276.00;;;;4950119;28;110823;-67
2022/03/14 05:58:36;;;;;;;8.20;5.53;;;-1.10;63.10;-1.40;101277.00;;;;4950303;28;118313;-69
2022/03/14 06:01:02;;;;;;;10.80;6.10;;;-0.70;63.30;-1.30;101276.00;;;;4950477;28;110025;-69
2022/03/14 06:03:28;;;;;;;8.33;4.17;;;-0.90;63.20;-1.10;101272.00;;;;4949656;28;109291;-69
2022/03/14 06:05:53;;;;;;;4.40;3.50;;;-0.80;63.30;-0.90;101266.00;;;;4950260;28;117774;-67
2022/03/14 06:08:19;;;;;;;10.50;5.40;;;-0.60;63.30;-0.70;101275.00;;;;4951407;28;102572;-67
2022/03/14 06:10:46;;;;;;;11.13;4.70;;;-0.40;63.10;-0.50;101272.00;;;;4969368;28;108348;-67
2022/03/14 06:13:16;;;;;;;10.13;4.87;;;-0.20;63.00;-0.30;101275.00;;;;4981029;28;86924;-68
2022/03/14 06:15:42;;;;;;;5.87;4.93;;;0.00;62.90;0.00;101281.00;;;;4954541;28;88093;-67
2022/03/14 06:18:08;;;;;;;9.97;5.27;;;0.60;62.90;0.20;101282.00;;;;4963378;28;88818;-67
2022/03/14 06:20:34;;;;;;;8.97;5.73;;;0.40;62.10;0.40;101281.00;;;;4957232;28;110394;-68
2022/03/14 06:23:01;;;;;;;8.20;4.47;;;0.70;61.70;0.70;101287.00;;;;4971771;28;107400;-67
2022/03/14 06:25:26;;;;;;;6.83;5.27;;;0.90;61.30;1.00;101289.00;;;;4957821;28;89120;-68
2022/03/14 06:27:52;;;;;;;20.73;5.57;;;1.10;60.90;1.20;101291.00;;;;4971906;28;117299;-68
2022/03/14 06:30:19;;;;;;;11.10;6.57;;;1.30;60.30;1.50;101302.00;;;;4971738;28;87564;-68
2022/03/14 06:32:46;;;;;;;9.60;5.83;;;1.60;59.80;1.70;101309.00;;;;4978101;28;87989;-68
2022/03/14 06:35:13;;;;;;;7.57;5.90;;;2.10;59.70;2.00;101304.00;;;;4975908;28;88266;-68
2022/03/14 06:37:39;;;;;;;9.10;5.57;;;2.00;59.30;2.30;101302.00;;;;4974229;28;87016;-67
2022/03/14 06:40:06;;;;;;;8.13;5.80;;;2.40;59.00;2.70;101307.00;;;;4975976;28;87673;-68
2022/03/14 06:42:32;;;;;;;11.80;6.03;;;2.70;58.70;3.00;101311.00;;;;4959968;28;89099;-69
2022/03/14 06:45:02;;;;;;;14.70;6.43;;;3.80;58.70;3.40;101323.00;;;;4971852;28;89268;-68
2022/03/14 06:47:28;;;;;;;11.63;5.13;;;3.40;58.00;3.70;101300.00;;;;4958857;28;90004;-69
2022/03/14 06:49:54;;;;;;;8.93;5.70;;;3.80;57.60;4.10;101306.00;;;;4958499;28;87544;-68
2022/03/14 06:52:20;;;;;;;11.37;5.80;;;4.10;57.10;4.40;101324.00;;;;4970350;28;87763;-68
2022/03/14 06:54:46;;;;;;;12.77;7.10;;;4.50;56.50;4.70;101310.00;;;;4957928;28;87945;-68
2022/03/14 06:57:12;;;;;;;9.10;5.80;;;4.80;55.90;5.10;101306.00;;;;4956783;28;115759;-69
2022/03/14 06:59:38;;;;;;;9.67;5.90;;;5.10;55.30;5.40;101311.00;;;;4955662;28;89665;-68
2022/03/14 07:02:05;;;;;;;9.77;6.40;;;5.40;54.70;5.70;101300.00;;;;4955765;28;106366;-68
2022/03/14 07:04:31;;;;;;;12.00;6.53;;;5.70;53.80;6.00;101314.00;;;;4954922;28;88038;-68
2022/03/14 07:06:58;;;;;;;11.17;6.27;;;6.00;53.40;6.30;101306.00;;;;4958038;28;88386;-68
2022/03/14 07:09:24;;;;;;;9.33;5.97;;;6.30;53.10;6.50;101315.00;;;;4956248;28;88664;-67
2022/03/14 07:11:51;;;;;;;11.23;6.00;;;6.60;52.70;6.90;101312.00;;;;4961591;28;107922;-68
2022/03/14 07:14:19;;;;;;;8.73;5.77;;;6.80;52.30;7.20;101311.00;;;;4975543;28;88058;-68
2022/03/14 07:16:46;;;;;;;12.90;6.43;;;7.20;51.90;7.50;101315.00;;;;4961470;28;89950;-67
2022/03/14 07:19:12;;;;;;;8.53;6.57;;;7.50;51.50;7.90;101318.00;;;;4971822;28;87758;-68
2022/03/14 07:21:38;;;;;;;12.60;6.43;;;7.80;51.20;8.20;101329.00;;;;4956877;28;90018;-68
2022/03/14 07:24:04;;;;;;;8.47;5.73;;;8.10;50.90;8.50;101334.00;;;;4970709;28;88461;-68
2022/03/14 07:26:30;;;;;;;12.83;6.73;;;8.50;50.40;8.90;101334.00;;;;4976725;28;105205;-68
2022/03/14 07:28:56;;;;;;;7.80;5.40;;;8.80;50.10;9.20;101345.00;;;;4976282;28;109884;-69
2022/03/14 07:31:21;;;;;;;9.53;6.33;;;9.20;49.70;9.60;101355.00;;;;4976621;28;109292;-69
2022/03/14 07:33:51;;;;;;;8.10;3.97;;;9.50;49.20;9.90;101348.00;;;;4975683;28;91062;-67
2022/03/14 07:36:17;;;;;;;9.43;5.13;;;9.80;47.60;10.10;101350.00;;;;4976324;28;112426;-69
2022/03/14 07:38:44;;;;;;;10.37;5.43;;;10.10;45.70;10.30;101337.00;;;;4964093;28;88185;-67
2022/03/14 07:41:10;;;;;;;8.43;3.93;;;10.30;43.80;10.40;101352.00;;;;4957976;28;87518;-67
2022/03/14 07:43:38;;;;;;;4.70;3.60;;;9.90;43.30;10.60;101352.00;;;;4956387;28;88984;-67
2022/03/14 07:46:03;;;;;;;4.17;2.80;;;10.60;41.80;10.70;101364.00;;;;4960889;28;94801;-66
2022/03/14 07:48:30;;;;;;;3.33;2.93;;;10.70;39.80;10.80;101360.00;;;;4975610;28;110433;-69
2022/03/14 07:50:55;;;;;;;6.13;3.57;;;10.60;38.40;10.90;101370.00;;;;4958017;28;108335;-68
2022/03/14 07:53:22;;;;;;;5.27;3.07;;;10.90;37.10;11.00;101376.00;;;;4957792;28;90790;-68
2022/03/14 07:55:48;;;;;;;3.97;3.03;;;11.00;37.80;11.20;101372.00;;;;4956128;28;88641;-68
2022/03/14 07:58:13;;;;;;;4.60;3.13;;;11.20;36.60;11.30;101384.00;;;;4956739;28;110304;-67
2022/03/14 08:00:39;;;;;;;3.93;2.80;;;11.30;35.20;11.20;101397.00;;;;4971284;28;87712;-66
2022/03/14 08:03:05;;;;;;;5.23;2.80;;;11.30;34.30;11.20;101396.00;;;;4955374;28;117847;-66
2022/03/14 08:05:31;;;;;;;4.30;2.83;;;11.20;33.80;11.20;101404.00;;;;4956305;28;87638;-67
2022/03/14 08:07:59;;;;;;;4.83;2.70;;;11.30;33.40;11.20;101398.00;;;;4946300;28;87860;-65
2022/03/14 08:10:25;;;;;;;4.97;3.03;;;11.30;32.90;11.20;101411.00;;;;4966397;28;87873;-67
2022/03/14 08:12:57;;;;;;;8.17;3.70;;;11.30;32.80;11.20;101418.00;;;;4967283;28;87790;-66
2022/03/14 08:15:31;;;;;;;3.57;3.10;;;11.30;32.40;11.10;101413.00;;;;4969842;28;88456;-67
2022/03/14 08:18:00;;;;;;;4.90;3.13;;;11.20;32.30;11.20;101415.00;;;;4976244;28;87684;-68
2022/03/14 08:20:27;;;;;;;4.80;2.77;;;11.30;32.80;11.30;101432.00;;;;4974263;28;87855;-67
2022/03/14 08:22:55;;;;;;;5.30;3.13;;;11.30;32.10;11.30;101423.00;;;;4974951;28;89561;-66
2022/03/14 08:25:22;;;;;;;4.80;3.43;;;11.30;31.80;11.30;101430.00;;;;4958262;28;88701;-68
2022/03/14 08:27:48;;;;;;;4.83;2.90;;;11.30;32.00;11.40;101440.00;;;;4956296;28;87832;-68
2022/03/14 08:30:14;;;;;;;5.90;3.67;;;11.40;32.00;11.40;101428.00;;;;4970020;28;92620;-67
2022/03/14 08:32:41;;;;;;;3.53;2.77;;;11.40;31.70;11.50;101439.00;;;;4957311;28;117929;-67
2022/03/14 08:35:08;;;;;;;3.37;2.73;;;11.50;31.20;11.50;101429.00;;;;4973534;28;87600;-68
2022/03/14 08:37:40;;;;;;;6.40;3.73;;;11.50;31.30;11.60;101441.00;;;;4976223;28;88223;-67
2022/03/14 08:40:09;;;;;;;8.03;3.43;;;11.10;31.00;11.60;101445.00;;;;4976487;28;87128;-67
2022/03/14 08:42:37;;;;;;;8.53;3.37;;;11.60;31.40;11.80;101441.00;;;;4974340;28;89057;-68
2022/03/14 08:45:04;;;;;;;2.93;2.67;;;11.70;32.50;12.00;101451.00;;;;4979151;28;88374;-68
2022/03/14 08:47:31;;;;;;;4.93;3.10;;;11.90;31.50;12.10;101449.00;;;;4974710;28;88542;-68
2022/03/14 08:49:57;;;;;;;4.40;2.97;;;12.10;31.20;12.30;101444.00;;;;4972978;28;87673;-67
2022/03/14 08:52:23;;;;;;;5.27;3.43;;;12.20;31.10;12.50;101451.00;;;;4975142;28;88598;-67
2022/03/14 08:54:48;;;;;;;4.97;3.17;;;12.40;31.60;12.70;101437.00;;;;4973439;28;95473;-67
2022/03/14 08:57:16;;;;;;;5.03;3.20;;;12.60;30.90;12.90;101433.00;;;;4974005;28;88451;-67
2022/03/14 08:59:43;;;;;;;3.27;2.90;;;12.80;30.20;13.00;101441.00;;;;4975463;28;87693;-67
2022/03/14 09:02:09;;;;;;;4.30;2.87;;;12.90;30.00;13.00;101442.00;;;;4975667;28;88759;-68
2022/03/14 09:04:35;;;;;;;4.70;3.57;;;12.90;30.00;13.10;101446.00;;;;4974689;28;88625;-67
2022/03/14 09:07:02;;;;;;;4.40;2.60;;;13.00;30.00;13.30;101448.00;;;;4956147;28;100309;-67
2022/03/14 09:09:28;;;;;;;5.10;3.23;;;13.20;30.00;13.40;101445.00;;;;4972487;28;88115;-67
2022/03/14 09:11:53;;;;;;;4.23;3.20;;;13.40;30.10;13.70;101452.00;;;;4962895;28;110599;-66
2022/03/14 09:14:19;;;;;;;6.30;3.77;;;13.50;30.40;13.90;101443.00;;;;4960912;28;89764;-68
2022/03/14 09:16:47;;;;;;;6.73;3.73;;;13.80;30.00;14.10;101444.00;;;;4974060;28;107004;-68
2022/03/14 09:19:14;;;;;;;6.43;3.43;;;13.90;30.20;14.40;101457.00;;;;4975611;28;87935;-68
2022/03/14 09:21:40;;;;;;;3.70;2.40;;;14.20;30.00;14.60;101454.00;;;;4974511;28;99591;-68
2022/03/14 09:24:06;;;;;;;3.87;2.87;;;14.40;29.60;14.70;101462.00;;;;4970869;28;87806;-67
2022/03/14 09:26:32;;;;;;;4.93;3.43;;;14.60;29.50;14.90;101451.00;;;;4972469;28;87883;-69
2022/03/14 09:28:59;;;;;;;4.07;3.03;;;14.70;28.80;15.00;101449.00;;;;4974513;28;87150;-67
2022/03/14 09:31:25;;;;;;;4.28;3.08;;;14.90;28.90;15.10;101451.00;;;;4974309;28;107279;-68
2022/03/14 09:33:51;;;;;;;4.13;3.07;;;15.00;28.50;15.20;101442.00;;;;4963404;28;88394;-67
2022/03/14 09:36:17;;;;;;;5.37;3.03;;;15.00;28.00;15.10;101441.00;;;;4954879;28;88945;-67
2022/03/14 09:38:44;;;;;;;8.10;3.30;;;15.10;28.50;15.30;101448.00;;;;4962438;28;107570;-69
2022/03/14 09:41:12;;;;;;;7.45;3.58;;;15.20;28.10;15.30;101454.00;;;;4973160;28;89133;-67
2022/03/14 09:43:40;;;;;;;4.75;3.60;;;15.20;28.00;15.40;101456.00;;;;4964035;28;88206;-67
2022/03/14 09:46:07;;;;;;;5.60;3.03;;;15.30;28.00;15.50;101447.00;;;;4954992;28;87530;-68
2022/03/14 09:48:40;;;;;;;5.32;2.88;;;15.40;27.90;15.70;101455.00;;;;4949965;28;88298;-68
2022/03/14 09:51:07;;;;;;;5.28;3.30;;;15.50;27.60;15.80;101466.00;;;;4950993;28;88162;-67
2022/03/14 09:53:34;;;;;;;4.68;3.00;;;15.60;27.60;15.90;101468.00;;;;4961323;28;88036;-69
2022/03/14 09:56:00;;;;;;;7.63;3.58;;;15.70;27.40;15.90;101469.00;;;;4974793;28;87767;-68
2022/03/14 09:58:26;;;;;;;3.63;3.15;;;15.80;27.60;16.10;101480.00;;;;4969155;28;110157;-68
2022/03/14 10:00:53;;;;;;;5.07;3.28;;;15.90;27.60;16.10;101470.00;;;;4954912;28;89037;-68
2022/03/14 10:03:22;;;;;;;4.30;3.17;;;16.00;27.40;16.20;101481.00;;;;4961568;28;88952;-66
2022/03/14 10:05:48;;;;;;;4.78;3.58;;;16.10;27.30;16.20;101487.00;;;;4956213;28;87815;-67
2022/03/14 10:08:15;;;;;;;6.75;3.20;;;16.00;26.90;16.20;101475.00;;;;4969740;28;87813;-66
2022/03/14 10:10:42;;;;;;;4.75;3.30;;;16.10;27.40;16.30;101488.00;;;;4949368;28;89401;-68
2022/03/14 10:13:10;;;;;;;4.47;3.42;;;16.20;27.00;16.40;101488.00;;;;4977461;27;87856;-66
2022/03/14 10:15:40;;;;;;;5.45;3.35;;;16.20;27.10;16.50;101481.00;;;;4955067;28;87834;-67
2022/03/14 10:18:18;;;;;;;7.03;3.88;;;16.30;27.30;16.80;101489.00;;;;4953046;28;87191;-66
2022/03/14 10:21:03;;;;;;;7.43;3.17;;;16.50;27.20;16.70;101490.00;;;;4954902;28;87728;-67
2022/03/14 10:23:44;;;;;;;5.50;3.63;;;16.50;26.50;16.50;101498.00;;;;4952865;28;88267;-67
2022/03/14 10:26:17;;;;;;;6.75;3.55;;;16.40;26.80;16.30;101500.00;;;;4952506;28;88832;-67
2022/03/14 10:28:49;;;;;;;5.00;3.05;;;16.20;26.50;16.40;101499.00;;;;4954641;28;88134;-66
2022/03/14 10:31:27;;;;;;;4.57;3.45;;;16.20;26.90;16.50;101504.00;;;;4966788;28;87919;-66
2022/03/14 10:34:01;;;;;;;5.60;3.47;;;16.30;27.00;16.50;101517.00;;;;4972965;28;108878;-67
2022/03/14 10:36:58;;;;;;;3.83;3.40;;;16.30;27.10;16.30;101512.00;;;;4935345;28;87471;-68
2022/03/14 10:39:33;;;;;;;7.05;3.35;;;16.20;26.60;16.10;101521.00;;;;4931931;28;95525;-68
2022/03/14 10:42:10;;;;;;;4.72;3.50;;;16.10;27.10;16.20;101513.00;;;;4953782;28;116196;-67
2022/03/14 10:44:40;;;;;;;4.93;3.40;;;16.10;27.50;16.20;101519.00;;;;4953885;28;87938;-66
2022/03/14 10:47:09;;;;;;;5.85;3.50;;;16.10;27.30;16.00;101520.00;;;;4964762;28;87706;-67
2022/03/14 10:49:38;;;;;;;5.38;3.15;;;16.00;27.30;15.80;101532.00;;;;4973417;28;87789;-67